sensor_id;sensor_type;location;lat;lon;timestamp;pressure;altitude;pressure_sealevel;temperature;humidity
46583;BME280;32309;48.858;8.252;2023-02-04T00:01:49;101788.28;;;6.63;93.16
46583;BME280;32309;48.858;8.252;2023-02-04T00:03:49;101789.16;;;6.62;92.61
46583;BME280;32309;48.858;8.252;2023-02-04T00:05:49;101783.13;;;6.63;92.44
46583;BME280;32309;48.858;8.252;2023-02-04T00:07:50;101771.13;;;6.62;92.10
46583;BME280;32309;48.858;8.252;2023-02-04T00:09:50;101779.69;;;6.64;92.76
46583;BME280;32309;48.858;8.252;2023-02-04T00:11:50;101778.78;;;6.65;91.99
46583;BME280;32309;48.858;8.252;2023-02-04T00:13:51;101780.50;;;6.66;92.29
46583;BME280;32309;48.858;8.252;2023-02-04T00:15:51;101771.91;;;6.67;92.14
46583;BME280;32309;48.858;8.252;2023-02-04T00:17:51;101771.94;;;6.65;92.61
46583;BME280;32309;48.858;8.252;2023-02-04T00:19:51;101767.59;;;6.69;91.81
46583;BME280;32309;48.858;8.252;2023-02-04T00:21:51;101771.06;;;6.66;93.00
46583;BME280;32309;48.858;8.252;2023-02-04T00:23:52;101772.78;;;6.66;91.95
46583;BME280;32309;48.858;8.252;2023-02-04T00:25:54;101779.66;;;6.65;92.76
46583;BME280;32309;48.858;8.252;2023-02-04T00:27:54;101780.50;;;6.66;92.18
46583;BME280;32309;48.858;8.252;2023-02-04T00:29:54;101786.53;;;6.65;92.48
46583;BME280;32309;48.858;8.252;2023-02-04T00:31:56;101777.91;;;6.66;92.72
46583;BME280;32309;48.858;8.252;2023-02-04T00:33:56;101781.38;;;6.65;93.19
46583;BME280;32309;48.858;8.252;2023-02-04T00:35:57;101790.00;;;6.62;92.70
46583;BME280;32309;48.858;8.252;2023-02-04T00:37:57;101789.19;;;6.60;93.37
46583;BME280;32309;48.858;8.252;2023-02-04T00:39:57;101790.03;;;6.61;92.24
46583;BME280;32309;48.858;8.252;2023-02-04T00:41:59;101793.50;;;6.60;92.81
46583;BME280;32309;48.858;8.252;2023-02-04T00:43:59;101794.34;;;6.60;92.89
46583;BME280;32309;48.858;8.252;2023-02-04T00:46:00;101790.06;;;6.59;93.10
46583;BME280;32309;48.858;8.252;2023-02-04T00:48:00;101796.94;;;6.59;92.31
46583;BME280;32309;48.858;8.252;2023-02-04T00:50:00;101793.50;;;6.60;92.62
46583;BME280;32309;48.858;8.252;2023-02-04T00:52:01;101791.78;;;6.59;93.02
46583;BME280;32309;48.858;8.252;2023-02-04T00:54:01;101783.19;;;6.58;93.35
46583;BME280;32309;48.858;8.252;2023-02-04T00:56:01;101782.31;;;6.59;92.92
46583;BME280;32309;48.858;8.252;2023-02-04T00:58:01;101779.75;;;6.59;93.28
46583;BME280;32309;48.858;8.252;2023-02-04T01:00:04;101788.31;;;6.61;92.78
46583;BME280;32309;48.858;8.252;2023-02-04T01:02:05;101784.06;;;6.59;92.95
46583;BME280;32309;48.858;8.252;2023-02-04T01:04:05;101780.63;;;6.60;92.93
46583;BME280;32309;48.858;8.252;2023-02-04T01:06:05;101787.44;;;6.61;93.16
46583;BME280;32309;48.858;8.252;2023-02-04T01:08:05;101780.63;;;6.60;92.84
46583;BME280;32309;48.858;8.252;2023-02-04T01:10:06;101778.03;;;6.60;92.46
46583;BME280;32309;48.858;8.252;2023-02-04T01:12:06;101783.16;;;6.61;92.70
46583;BME280;32309;48.858;8.252;2023-02-04T01:14:06;101787.44;;;6.61;93.00
46583;BME280;32309;48.858;8.252;2023-02-04T01:16:06;101790.03;;;6.61;93.26
46583;BME280;32309;48.858;8.252;2023-02-04T01:18:07;101783.16;;;6.61;92.33
46583;BME280;32309;48.858;8.252;2023-02-04T01:20:08;101788.31;;;6.61;93.21
46583;BME280;32309;48.858;8.252;2023-02-04T01:22:09;101786.59;;;6.62;92.53
46583;BME280;32309;48.858;8.252;2023-02-04T01:24:09;101777.97;;;6.63;92.37
46583;BME280;32309;48.858;8.252;2023-02-04T01:26:12;101784.03;;;6.60;92.65
46583;BME280;32309;48.858;8.252;2023-02-04T01:28:15;101782.31;;;6.59;93.23
46583;BME280;32309;48.858;8.252;2023-02-04T01:30:15;101786.66;;;6.59;93.69
46583;BME280;32309;48.858;8.252;2023-02-04T01:32:15;101803.81;;;6.60;93.56
46583;BME280;32309;48.858;8.252;2023-02-04T01:34:19;101802.06;;;6.60;93.55
46583;BME280;32309;48.858;8.252;2023-02-04T01:36:22;101804.66;;;6.60;93.06
46583;BME280;32309;48.858;8.252;2023-02-04T01:38:27;101794.38;;;6.59;93.59
46583;BME280;32309;48.858;8.252;2023-02-04T01:40:39;101798.66;;;6.58;93.97
46583;BME280;32309;48.858;8.252;2023-02-04T01:42:40;101793.59;;;6.54;94.74
46583;BME280;32309;48.858;8.252;2023-02-04T01:44:40;101795.31;;;6.55;94.09
46583;BME280;32309;48.858;8.252;2023-02-04T01:46:40;101779.88;;;6.52;95.09
46583;BME280;32309;48.858;8.252;2023-02-04T01:50:49;101786.81;;;6.48;95.00
46583;BME280;32309;48.858;8.252;2023-02-04T01:52:51;101791.13;;;6.46;94.54
46583;BME280;32309;48.858;8.252;2023-02-04T01:54:51;101791.16;;;6.44;94.81
46583;BME280;32309;48.858;8.252;2023-02-04T01:56:52;101787.72;;;6.44;95.98
46583;BME280;32309;48.858;8.252;2023-02-04T01:58:55;101792.94;;;6.41;95.78
46583;BME280;32309;48.858;8.252;2023-02-04T02:00:56;101787.78;;;6.41;95.78
46583;BME280;32309;48.858;8.252;2023-02-04T02:02:56;101790.34;;;6.41;95.59
46583;BME280;32309;48.858;8.252;2023-02-04T02:04:57;101786.94;;;6.40;95.14
46583;BME280;32309;48.858;8.252;2023-02-04T02:06:59;101790.34;;;6.41;95.51
46583;BME280;32309;48.858;8.252;2023-02-04T02:09:02;101792.06;;;6.42;95.42
46583;BME280;32309;48.858;8.252;2023-02-04T02:11:03;101782.59;;;6.42;95.35
46583;BME280;32309;48.858;8.252;2023-02-04T02:13:04;101782.59;;;6.42;94.93
46583;BME280;32309;48.858;8.252;2023-02-04T02:15:08;101783.47;;;6.41;95.68
46583;BME280;32309;48.858;8.252;2023-02-04T02:17:09;101780.91;;;6.41;95.03
46583;BME280;32309;48.858;8.252;2023-02-04T02:19:11;101780.03;;;6.42;94.88
46583;BME280;32309;48.858;8.252;2023-02-04T02:21:15;101781.72;;;6.43;94.70
46583;BME280;32309;48.858;8.252;2023-02-04T02:25:43;101780.91;;;6.41;95.20
46583;BME280;32309;48.858;8.252;2023-02-04T02:27:44;101782.59;;;6.42;95.69
46583;BME280;32309;48.858;8.252;2023-02-04T02:29:45;101786.91;;;6.42;95.45
46583;BME280;32309;48.858;8.252;2023-02-04T02:31:45;101784.31;;;6.43;95.07
46583;BME280;32309;48.858;8.252;2023-02-04T02:33:45;101788.63;;;6.43;95.27
46583;BME280;32309;48.858;8.252;2023-02-04T02:35:47;101801.50;;;6.41;94.97
46583;BME280;32309;48.858;8.252;2023-02-04T02:37:47;101794.63;;;6.42;95.15
46583;BME280;32309;48.858;8.252;2023-02-04T02:39:48;101795.47;;;6.42;94.85
46583;BME280;32309;48.858;8.252;2023-02-04T02:41:48;101793.78;;;6.43;95.42
46583;BME280;32309;48.858;8.252;2023-02-04T02:43:49;101798.03;;;6.44;95.11
46583;BME280;32309;48.858;8.252;2023-02-04T02:45:49;101800.59;;;6.44;95.03
46583;BME280;32309;48.858;8.252;2023-02-04T02:47:50;101810.03;;;6.45;94.55
46583;BME280;32309;48.858;8.252;2023-02-04T02:49:51;101808.31;;;6.45;94.78
46583;BME280;32309;48.858;8.252;2023-02-04T02:51:53;101804.00;;;6.46;94.95
46583;BME280;32309;48.858;8.252;2023-02-04T02:53:53;101806.56;;;6.47;94.82
46583;BME280;32309;48.858;8.252;2023-02-04T02:55:54;101804.88;;;6.45;95.12
46583;BME280;32309;48.858;8.252;2023-02-04T02:57:54;101805.72;;;6.47;94.89
46583;BME280;32309;48.858;8.252;2023-02-04T02:59:56;101805.72;;;6.47;95.09
46583;BME280;32309;48.858;8.252;2023-02-04T03:01:57;101810.03;;;6.45;95.91
46583;BME280;32309;48.858;8.252;2023-02-04T03:04:00;101810.00;;;6.46;96.11
46583;BME280;32309;48.858;8.252;2023-02-04T03:06:03;101798.91;;;6.44;96.07
46583;BME280;32309;48.858;8.252;2023-02-04T03:08:09;101795.47;;;6.42;96.06
46583;BME280;32309;48.858;8.252;2023-02-04T03:10:11;101798.13;;;6.39;97.03
46583;BME280;32309;48.858;8.252;2023-02-04T03:12:11;101804.13;;;6.38;96.98
46583;BME280;32309;48.858;8.252;2023-02-04T03:14:12;101814.44;;;6.38;96.85
46583;BME280;32309;48.858;8.252;2023-02-04T03:16:12;101808.41;;;6.39;96.33
46583;BME280;32309;48.858;8.252;2023-02-04T03:18:13;101817.84;;;6.39;96.63
46583;BME280;32309;48.858;8.252;2023-02-04T03:20:16;101824.72;;;6.38;97.36
46583;BME280;32309;48.858;8.252;2023-02-04T03:22:16;101855.56;;;6.44;94.88
46583;BME280;32309;48.858;8.252;2023-02-04T03:24:17;101870.06;;;6.50;94.07
46583;BME280;32309;48.858;8.252;2023-02-04T03:26:17;101869.25;;;6.46;94.13
46583;BME280;32309;48.858;8.252;2023-02-04T03:28:17;101865.03;;;6.41;94.52
46583;BME280;32309;48.858;8.252;2023-02-04T03:30:18;101864.09;;;6.48;95.00
46583;BME280;32309;48.858;8.252;2023-02-04T03:32:18;101857.66;;;6.75;94.00
46583;BME280;32309;48.858;8.252;2023-02-04T03:34:18;101854.53;;;6.53;94.16
46583;BME280;32309;48.858;8.252;2023-02-04T03:36:18;101860.75;;;6.43;95.59
46583;BME280;32309;48.858;8.252;2023-02-04T03:38:19;101863.34;;;6.40;97.18
46583;BME280;32309;48.858;8.252;2023-02-04T03:40:19;101865.94;;;6.38;96.33
46583;BME280;32309;48.858;8.252;2023-02-04T03:42:20;101879.66;;;6.39;98.13
46583;BME280;32309;48.858;8.252;2023-02-04T03:44:20;101879.66;;;6.39;96.53
46583;BME280;32309;48.858;8.252;2023-02-04T03:46:21;101879.69;;;6.37;96.46
46583;BME280;32309;48.858;8.252;2023-02-04T03:48:22;101873.75;;;6.33;97.63
46583;BME280;32309;48.858;8.252;2023-02-04T03:50:23;101876.31;;;6.33;98.71
46583;BME280;32309;48.858;8.252;2023-02-04T03:52:23;101879.72;;;6.36;98.55
46583;BME280;32309;48.858;8.252;2023-02-04T03:54:23;101879.66;;;6.39;98.64
46583;BME280;32309;48.858;8.252;2023-02-04T03:56:23;101877.91;;;6.41;98.77
46583;BME280;32309;48.858;8.252;2023-02-04T03:58:23;101881.34;;;6.43;99.27
46583;BME280;32309;48.858;8.252;2023-02-04T04:00:24;101882.19;;;6.43;98.33
46583;BME280;32309;48.858;8.252;2023-02-04T04:02:24;101879.53;;;6.46;99.28
46583;BME280;32309;48.858;8.252;2023-02-04T04:04:24;101886.41;;;6.47;99.04
46583;BME280;32309;48.858;8.252;2023-02-04T04:06:25;101889.81;;;6.49;99.25
46583;BME280;32309;48.858;8.252;2023-02-04T04:08:25;101898.41;;;6.50;98.75
46583;BME280;32309;48.858;8.252;2023-02-04T04:10:25;101895.81;;;6.50;99.05
46583;BME280;32309;48.858;8.252;2023-02-04T04:12:27;101894.94;;;6.51;99.07
46583;BME280;32309;48.858;8.252;2023-02-04T04:14:27;101894.09;;;6.52;98.97
46583;BME280;32309;48.858;8.252;2023-02-04T04:16:27;101903.50;;;6.53;98.40
46583;BME280;32309;48.858;8.252;2023-02-04T04:18:28;101904.38;;;6.52;98.60
46583;BME280;32309;48.858;8.252;2023-02-04T04:20:28;101900.06;;;6.53;99.14
46583;BME280;32309;48.858;8.252;2023-02-04T04:22:28;101902.69;;;6.51;99.06
46583;BME280;32309;48.858;8.252;2023-02-04T04:24:29;101897.50;;;6.53;98.81
46583;BME280;32309;48.858;8.252;2023-02-04T04:26:29;101906.06;;;6.53;99.13
46583;BME280;32309;48.858;8.252;2023-02-04T04:28:29;101898.38;;;6.52;99.58
46583;BME280;32309;48.858;8.252;2023-02-04T04:30:29;101901.81;;;6.52;98.98
46583;BME280;32309;48.858;8.252;2023-02-04T04:32:30;101898.34;;;6.53;97.40
46583;BME280;32309;48.858;8.252;2023-02-04T04:34:30;101906.97;;;6.50;97.12
46583;BME280;32309;48.858;8.252;2023-02-04T04:36:30;101908.75;;;6.47;97.37
46583;BME280;32309;48.858;8.252;2023-02-04T04:38:31;101919.06;;;6.47;96.72
46583;BME280;32309;48.858;8.252;2023-02-04T04:40:36;101914.78;;;6.46;97.10
46583;BME280;32309;48.858;8.252;2023-02-04T04:42:37;101920.84;;;6.42;97.31
46583;BME280;32309;48.858;8.252;2023-02-04T04:44:37;101932.84;;;6.43;96.73
46583;BME280;32309;48.858;8.252;2023-02-04T04:46:37;101925.16;;;6.38;97.76
46583;BME280;32309;48.858;8.252;2023-02-04T04:48:39;101922.66;;;6.35;97.85
46583;BME280;32309;48.858;8.252;2023-02-04T04:50:39;101928.63;;;6.36;98.32
46583;BME280;32309;48.858;8.252;2023-02-04T04:52:40;101940.66;;;6.37;98.54
46583;BME280;32309;48.858;8.252;2023-02-04T04:54:40;101934.63;;;6.38;98.25
46583;BME280;32309;48.858;8.252;2023-02-04T04:56:40;101931.16;;;6.39;97.15
46583;BME280;32309;48.858;8.252;2023-02-04T04:58:40;101931.97;;;6.42;97.46
46583;BME280;32309;48.858;8.252;2023-02-04T05:00:41;101926.03;;;6.40;96.81
46583;BME280;32309;48.858;8.252;2023-02-04T05:02:41;101927.72;;;6.40;97.30
46583;BME280;32309;48.858;8.252;2023-02-04T05:04:42;101926.88;;;6.39;97.42
46583;BME280;32309;48.858;8.252;2023-02-04T05:06:42;101925.19;;;6.37;97.87
46583;BME280;32309;48.858;8.252;2023-02-04T05:08:44;101932.06;;;6.38;97.67
46583;BME280;32309;48.858;8.252;2023-02-04T05:10:44;101931.16;;;6.39;97.55
46583;BME280;32309;48.858;8.252;2023-02-04T05:12:44;101932.94;;;6.37;98.02
46583;BME280;32309;48.858;8.252;2023-02-04T05:14:44;101932.09;;;6.33;98.01
46583;BME280;32309;48.858;8.252;2023-02-04T05:16:45;101941.56;;;6.32;99.47
46583;BME280;32309;48.858;8.252;2023-02-04T05:18:45;101936.38;;;6.34;99.02
46583;BME280;32309;48.858;8.252;2023-02-04T05:20:45;101934.66;;;6.35;98.22
46583;BME280;32309;48.858;8.252;2023-02-04T05:22:46;101929.50;;;6.35;98.72
46583;BME280;32309;48.858;8.252;2023-02-04T05:24:46;101938.06;;;6.37;99.31
46583;BME280;32309;48.858;8.252;2023-02-04T05:26:46;101944.06;;;6.37;99.46
46583;BME280;32309;48.858;8.252;2023-02-04T05:28:47;101944.06;;;6.37;98.71
46583;BME280;32309;48.858;8.252;2023-02-04T05:30:47;101933.75;;;6.39;99.97
46583;BME280;32309;48.858;8.252;2023-02-04T05:32:47;101930.31;;;6.38;99.92
46583;BME280;32309;48.858;8.252;2023-02-04T05:34:48;101934.59;;;6.41;100.00
46583;BME280;32309;48.858;8.252;2023-02-04T05:36:48;101933.72;;;6.42;100.00
46583;BME280;32309;48.858;8.252;2023-02-04T05:38:48;101942.28;;;6.42;100.00
46583;BME280;32309;48.858;8.252;2023-02-04T05:40:49;101940.56;;;6.44;100.00
46583;BME280;32309;48.858;8.252;2023-02-04T05:42:49;101943.16;;;6.43;99.85
46583;BME280;32309;48.858;8.252;2023-02-04T05:44:49;101951.72;;;6.43;100.00
46583;BME280;32309;48.858;8.252;2023-02-04T05:46:49;101948.31;;;6.43;100.00
46583;BME280;32309;48.858;8.252;2023-02-04T05:48:50;101956.88;;;6.43;100.00
46583;BME280;32309;48.858;8.252;2023-02-04T05:50:50;101952.56;;;6.44;99.81
46583;BME280;32309;48.858;8.252;2023-02-04T05:52:50;101952.56;;;6.44;100.00
46583;BME280;32309;48.858;8.252;2023-02-04T05:54:51;101949.16;;;6.43;99.72
46583;BME280;32309;48.858;8.252;2023-02-04T05:56:51;101944.00;;;6.43;99.95
46583;BME280;32309;48.858;8.252;2023-02-04T05:58:51;101931.16;;;6.42;100.00
46583;BME280;32309;48.858;8.252;2023-02-04T06:00:52;101933.75;;;6.40;99.22
46583;BME280;32309;48.858;8.252;2023-02-04T06:02:52;101945.78;;;6.38;99.18
46583;BME280;32309;48.858;8.252;2023-02-04T06:04:52;101939.81;;;6.36;99.96
46583;BME280;32309;48.858;8.252;2023-02-04T06:06:52;101951.81;;;6.36;99.66
46583;BME280;32309;48.858;8.252;2023-02-04T06:08:53;101952.69;;;6.36;99.43
46583;BME280;32309;48.858;8.252;2023-02-04T06:10:53;101953.53;;;6.37;99.35
46583;BME280;32309;48.858;8.252;2023-02-04T06:12:53;101959.50;;;6.39;99.33
46583;BME280;32309;48.858;8.252;2023-02-04T06:14:53;101962.06;;;6.39;99.53
46583;BME280;32309;48.858;8.252;2023-02-04T06:16:54;101968.09;;;6.39;99.73
46583;BME280;32309;48.858;8.252;2023-02-04T06:18:55;101968.13;;;6.38;99.30
46583;BME280;32309;48.858;8.252;2023-02-04T06:20:55;101979.25;;;6.38;99.39
46583;BME280;32309;48.858;8.252;2023-02-04T06:22:55;101986.16;;;6.38;99.06
46583;BME280;32309;48.858;8.252;2023-02-04T06:24:56;101980.97;;;6.39;99.83
46583;BME280;32309;48.858;8.252;2023-02-04T06:26:56;101980.09;;;6.39;99.01
46583;BME280;32309;48.858;8.252;2023-02-04T06:28:56;101983.56;;;6.38;98.90
46583;BME280;32309;48.858;8.252;2023-02-04T06:30:57;101990.44;;;6.36;98.88
46583;BME280;32309;48.858;8.252;2023-02-04T06:32:57;102003.31;;;6.37;99.37
46583;BME280;32309;48.858;8.252;2023-02-04T06:34:57;101999.88;;;6.37;98.67
46583;BME280;32309;48.858;8.252;2023-02-04T06:36:57;102014.50;;;6.36;98.32
46583;BME280;32309;48.858;8.252;2023-02-04T06:38:58;102005.91;;;6.36;98.90
46583;BME280;32309;48.858;8.252;2023-02-04T06:40:58;102013.66;;;6.34;98.77
46583;BME280;32309;48.858;8.252;2023-02-04T06:42:58;102008.53;;;6.32;98.88
46583;BME280;32309;48.858;8.252;2023-02-04T06:44:59;102013.66;;;6.32;98.70
46583;BME280;32309;48.858;8.252;2023-02-04T06:46:59;102007.66;;;6.33;99.06
46583;BME280;32309;48.858;8.252;2023-02-04T06:48:59;102008.50;;;6.34;98.39
46583;BME280;32309;48.858;8.252;2023-02-04T06:50:59;102011.06;;;6.36;98.65
46583;BME280;32309;48.858;8.252;2023-02-04T06:53:00;102007.63;;;6.37;98.42
46583;BME280;32309;48.858;8.252;2023-02-04T06:55:00;102013.63;;;6.36;98.43
46583;BME280;32309;48.858;8.252;2023-02-04T06:57:00;102011.06;;;6.36;98.30
46583;BME280;32309;48.858;8.252;2023-02-04T06:59:05;102018.81;;;6.34;98.17
46583;BME280;32309;48.858;8.252;2023-02-04T07:01:05;102023.97;;;6.32;98.36
46583;BME280;32309;48.858;8.252;2023-02-04T07:03:06;102018.81;;;6.32;98.35
46583;BME280;32309;48.858;8.252;2023-02-04T07:05:07;102022.25;;;6.33;98.49
46583;BME280;32309;48.858;8.252;2023-02-04T07:07:07;102024.78;;;6.35;98.57
46583;BME280;32309;48.858;8.252;2023-02-04T07:09:08;102029.09;;;6.34;98.13
46583;BME280;32309;48.858;8.252;2023-02-04T07:11:09;102035.13;;;6.31;97.61
46583;BME280;32309;48.858;8.252;2023-02-04T07:13:09;102036.09;;;6.23;97.86
46583;BME280;32309;48.858;8.252;2023-02-04T07:15:09;102029.25;;;6.20;97.73
46583;BME280;32309;48.858;8.252;2023-02-04T07:17:10;102030.13;;;6.21;97.93
46583;BME280;32309;48.858;8.252;2023-02-04T07:19:10;102028.38;;;6.21;98.65
46583;BME280;32309;48.858;8.252;2023-02-04T07:21:10;102029.22;;;6.23;98.25
46583;BME280;32309;48.858;8.252;2023-02-04T07:23:10;102031.81;;;6.22;98.36
46583;BME280;32309;48.858;8.252;2023-02-04T07:25:11;102041.22;;;6.23;98.59
46583;BME280;32309;48.858;8.252;2023-02-04T07:27:13;102052.41;;;6.23;98.35
46583;BME280;32309;48.858;8.252;2023-02-04T07:29:14;102048.09;;;6.24;98.59
46583;BME280;32309;48.858;8.252;2023-02-04T07:31:14;102052.38;;;6.25;98.56
46583;BME280;32309;48.858;8.252;2023-02-04T07:33:14;102048.09;;;6.27;98.18
46583;BME280;32309;48.858;8.252;2023-02-04T07:35:15;102056.69;;;6.24;97.42
46583;BME280;32309;48.858;8.252;2023-02-04T07:37:16;102062.72;;;6.22;98.02
46583;BME280;32309;48.858;8.252;2023-02-04T07:39:16;102065.28;;;6.20;97.88
46583;BME280;32309;48.858;8.252;2023-02-04T07:41:17;102067.88;;;6.20;98.04
46583;BME280;32309;48.858;8.252;2023-02-04T07:43:17;102073.00;;;6.20;98.12
46583;BME280;32309;48.858;8.252;2023-02-04T07:45:18;102073.03;;;6.22;97.82
46583;BME280;32309;48.858;8.252;2023-02-04T07:47:18;102065.25;;;6.25;98.56
46583;BME280;32309;48.858;8.252;2023-02-04T07:49:18;102073.84;;;6.27;98.09
46583;BME280;32309;48.858;8.252;2023-02-04T07:51:18;102085.81;;;6.28;97.73
46583;BME280;32309;48.858;8.252;2023-02-04T07:53:19;102093.53;;;6.28;97.77
46583;BME280;32309;48.858;8.252;2023-02-04T07:55:19;102084.09;;;6.28;97.79
46583;BME280;32309;48.858;8.252;2023-02-04T07:57:19;102087.50;;;6.30;98.33
46583;BME280;32309;48.858;8.252;2023-02-04T07:59:20;102090.06;;;6.32;98.25
46583;BME280;32309;48.858;8.252;2023-02-04T08:01:20;102101.22;;;6.32;97.47
46583;BME280;32309;48.858;8.252;2023-02-04T08:03:20;102105.53;;;6.33;97.70
46583;BME280;32309;48.858;8.252;2023-02-04T08:05:20;102112.38;;;6.36;98.05
46583;BME280;32309;48.858;8.252;2023-02-04T08:07:21;102100.34;;;6.35;97.43
46583;BME280;32309;48.858;8.252;2023-02-04T08:09:21;102109.78;;;6.36;96.70
46583;BME280;32309;48.858;8.252;2023-02-04T08:11:22;102111.44;;;6.39;96.42
46583;BME280;32309;48.858;8.252;2023-02-04T08:13:23;102119.16;;;6.42;96.90
46583;BME280;32309;48.858;8.252;2023-02-04T08:15:24;102115.69;;;6.44;96.68
46583;BME280;32309;48.858;8.252;2023-02-04T08:17:24;102114.84;;;6.45;96.53
46583;BME280;32309;48.858;8.252;2023-02-04T08:19:24;102122.53;;;6.48;96.83
46583;BME280;32309;48.858;8.252;2023-02-04T08:21:25;102129.38;;;6.49;96.46
46583;BME280;32309;48.858;8.252;2023-02-04T08:23:25;102135.38;;;6.52;95.89
46583;BME280;32309;48.858;8.252;2023-02-04T08:25:25;102133.66;;;6.50;96.04
46583;BME280;32309;48.858;8.252;2023-02-04T08:27:27;102132.81;;;6.50;95.19
46583;BME280;32309;48.858;8.252;2023-02-04T08:29:28;102137.94;;;6.52;95.61
46583;BME280;32309;48.858;8.252;2023-02-04T08:31:28;102133.63;;;6.55;95.54
46583;BME280;32309;48.858;8.252;2023-02-04T08:33:28;102131.88;;;6.59;96.01
46583;BME280;32309;48.858;8.252;2023-02-04T08:35:28;102136.16;;;6.60;95.52
46583;BME280;32309;48.858;8.252;2023-02-04T08:37:29;102138.75;;;6.60;96.13
46583;BME280;32309;48.858;8.252;2023-02-04T08:39:29;102143.00;;;6.61;95.13
46583;BME280;32309;48.858;8.252;2023-02-04T08:41:29;102145.56;;;6.64;95.88
46583;BME280;32309;48.858;8.252;2023-02-04T08:43:30;102144.66;;;6.65;95.52
46583;BME280;32309;48.858;8.252;2023-02-04T08:45:30;102141.19;;;6.68;95.35
46583;BME280;32309;48.858;8.252;2023-02-04T08:47:30;102145.44;;;6.72;95.05
46583;BME280;32309;48.858;8.252;2023-02-04T08:49:30;102140.25;;;6.76;95.34
46583;BME280;32309;48.858;8.252;2023-02-04T08:51:31;102147.09;;;6.79;95.44
46583;BME280;32309;48.858;8.252;2023-02-04T08:53:31;102145.38;;;6.81;95.55
46583;BME280;32309;48.858;8.252;2023-02-04T08:55:31;102154.78;;;6.85;95.45
46583;BME280;32309;48.858;8.252;2023-02-04T08:57:32;102150.41;;;6.89;95.90
46583;BME280;32309;48.858;8.252;2023-02-04T08:59:33;102166.72;;;6.91;95.57
46583;BME280;32309;48.858;8.252;2023-02-04T09:01:34;102161.53;;;6.92;95.48
46583;BME280;32309;48.858;8.252;2023-02-04T09:03:34;102164.09;;;6.94;95.04
46583;BME280;32309;48.858;8.252;2023-02-04T09:05:34;102160.59;;;6.98;95.02
46583;BME280;32309;48.858;8.252;2023-02-04T09:07:34;102163.16;;;7.03;94.93
46583;BME280;32309;48.858;8.252;2023-02-04T09:09:35;102159.69;;;7.04;94.76
46583;BME280;32309;48.858;8.252;2023-02-04T09:11:38;102156.22;;;7.08;94.66
46583;BME280;32309;48.858;8.252;2023-02-04T09:13:38;102157.88;;;7.12;94.47
46583;BME280;32309;48.858;8.252;2023-02-04T09:15:39;102166.47;;;7.11;94.22
46583;BME280;32309;48.858;8.252;2023-02-04T09:17:39;102172.50;;;7.11;93.41
46583;BME280;32309;48.858;8.252;2023-02-04T09:19:41;102172.50;;;7.11;93.47
46583;BME280;32309;48.858;8.252;2023-02-04T09:21:41;102172.50;;;7.11;93.38
46583;BME280;32309;48.858;8.252;2023-02-04T09:23:41;102177.66;;;7.11;93.05
46583;BME280;32309;48.858;8.252;2023-02-04T09:25:42;102173.31;;;7.13;91.66
46583;BME280;32309;48.858;8.252;2023-02-04T09:27:42;102169.94;;;7.11;92.24
46583;BME280;32309;48.858;8.252;2023-02-04T09:29:43;102175.03;;;7.14;92.23
46583;BME280;32309;48.858;8.252;2023-02-04T09:31:43;102174.19;;;7.14;91.03
46583;BME280;32309;48.858;8.252;2023-02-04T09:33:43;102180.22;;;7.13;90.78
46583;BME280;32309;48.858;8.252;2023-02-04T09:35:44;102175.88;;;7.15;91.17
46583;BME280;32309;48.858;8.252;2023-02-04T09:37:44;102169.91;;;7.13;90.48
46583;BME280;32309;48.858;8.252;2023-02-04T09:39:44;102175.06;;;7.13;91.41
46583;BME280;32309;48.858;8.252;2023-02-04T09:41:44;102174.19;;;7.14;91.16
46583;BME280;32309;48.858;8.252;2023-02-04T09:43:45;102188.78;;;7.13;90.76
46583;BME280;32309;48.858;8.252;2023-02-04T09:45:46;102183.59;;;7.16;89.30
46583;BME280;32309;48.858;8.252;2023-02-04T09:47:48;102185.31;;;7.18;89.38
46583;BME280;32309;48.858;8.252;2023-02-04T09:49:50;102182.72;;;7.18;88.23
46583;BME280;32309;48.858;8.252;2023-02-04T09:51:50;102184.47;;;7.17;87.44
46583;BME280;32309;48.858;8.252;2023-02-04T09:53:51;102177.63;;;7.13;87.68
46583;BME280;32309;48.858;8.252;2023-02-04T09:55:54;102177.63;;;7.13;87.28
46583;BME280;32309;48.858;8.252;2023-02-04T09:57:57;102181.94;;;7.11;87.48
46583;BME280;32309;48.858;8.252;2023-02-04T09:59:59;102182.81;;;7.10;86.91
46583;BME280;32309;48.858;8.252;2023-02-04T10:02:00;102190.50;;;7.14;86.61
46583;BME280;32309;48.858;8.252;2023-02-04T10:04:11;102188.81;;;7.12;85.70
46583;BME280;32309;48.858;8.252;2023-02-04T10:06:13;102201.69;;;7.13;84.69
46583;BME280;32309;48.858;8.252;2023-02-04T10:08:15;102194.88;;;7.08;84.96
46583;BME280;32309;48.858;8.252;2023-02-04T10:10:17;102200.03;;;7.08;85.49
46583;BME280;32309;48.858;8.252;2023-02-04T10:12:20;102198.31;;;7.07;85.75
46583;BME280;32309;48.858;8.252;2023-02-04T10:14:21;102203.44;;;7.10;86.21
46583;BME280;32309;48.858;8.252;2023-02-04T10:16:27;102199.09;;;7.13;85.43
46583;BME280;32309;48.858;8.252;2023-02-04T10:18:31;102187.94;;;7.14;85.41
46583;BME280;32309;48.858;8.252;2023-02-04T10:20:33;102191.34;;;7.15;84.66
46583;BME280;32309;48.858;8.252;2023-02-04T10:22:33;102199.09;;;7.13;85.54
46583;BME280;32309;48.858;8.252;2023-02-04T10:24:33;102202.53;;;7.15;85.18
46583;BME280;32309;48.858;8.252;2023-02-04T10:26:34;102194.75;;;7.19;83.66
46583;BME280;32309;48.858;8.252;2023-02-04T10:28:35;102191.28;;;7.21;82.86
46583;BME280;32309;48.858;8.252;2023-02-04T10:30:40;102189.56;;;7.20;82.85
46583;BME280;32309;48.858;8.252;2023-02-04T10:32:42;102201.63;;;7.16;82.96
46583;BME280;32309;48.858;8.252;2023-02-04T10:34:44;102210.28;;;7.14;82.93
46583;BME280;32309;48.858;8.252;2023-02-04T10:36:45;102207.72;;;7.11;83.64
46583;BME280;32309;48.858;8.252;2023-02-04T10:38:58;102209.47;;;7.10;84.07
46583;BME280;32309;48.858;8.252;2023-02-04T10:41:02;102215.53;;;7.06;84.61
46583;BME280;32309;48.858;8.252;2023-02-04T10:43:13;102212.09;;;7.04;84.54
46583;BME280;32309;48.858;8.252;2023-02-04T10:45:22;102214.75;;;6.98;84.67